createdAt,value
2023-03-01T00:04:33.469Z,96
2023-03-01T00:09:29.992Z,94.6
2023-03-01T00:14:26.594Z,96.3
2023-03-01T00:20:37.232Z,97.2
2023-03-01T00:25:33.740Z,97.6
2023-03-01T00:30:30.302Z,97.4
2023-03-01T00:41:37.456Z,99
2023-03-01T00:46:34.468Z,100
2023-03-01T00:51:30.529Z,100
2023-03-01T00:56:27.072Z,100
2023-03-01T01:02:37.730Z,100
2023-03-01T01:07:34.243Z,100
2023-03-01T01:12:30.721Z,100
2023-03-01T01:17:27.263Z,100
2023-03-01T01:23:37.967Z,100
2023-03-01T01:28:34.555Z,100
2023-03-01T01:33:31.012Z,100
2023-03-01T01:38:27.572Z,100
2023-03-01T01:44:38.232Z,100
2023-03-01T01:49:34.741Z,100
2023-03-01T01:54:31.273Z,100
2023-03-01T02:05:38.449Z,100
2023-03-01T02:10:35.051Z,100
2023-03-01T02:15:31.556Z,100
2023-03-01T02:20:28.122Z,100
2023-03-01T02:26:38.814Z,100
2023-03-01T02:31:35.295Z,100
2023-03-01T02:36:32.315Z,100
2023-03-01T02:41:28.327Z,100
2023-03-01T02:47:39.005Z,100
2023-03-01T02:52:35.597Z,100
2023-03-01T02:57:32.118Z,100
2023-03-01T03:02:28.697Z,100
2023-03-01T03:08:39.303Z,100
2023-03-01T03:13:35.858Z,100
2023-03-01T03:18:32.307Z,100
2023-03-01T03:23:28.945Z,100
2023-03-01T03:29:39.617Z,100
2023-03-01T03:34:36.070Z,100
2023-03-01T03:39:32.620Z,100
2023-03-01T03:44:29.128Z,100
2023-03-01T03:50:39.812Z,100
2023-03-01T03:55:36.316Z,100
2023-03-01T04:00:32.828Z,100
2023-03-01T04:05:29.362Z,100
2023-03-01T04:10:25.965Z,100
2023-03-01T04:16:36.671Z,100
2023-03-01T04:21:33.105Z,100
2023-03-01T04:26:30.188Z,100
2023-03-01T04:31:26.261Z,100
2023-03-01T04:37:36.906Z,100
2023-03-01T04:42:33.382Z,100
2023-03-01T04:47:29.985Z,100
2023-03-01T04:52:26.531Z,100
2023-03-01T04:58:37.132Z,100
2023-03-01T05:03:33.604Z,100
2023-03-01T05:08:30.245Z,100
2023-03-01T05:13:26.687Z,100
2023-03-01T05:19:37.337Z,100
2023-03-01T05:24:33.876Z,100
2023-03-01T05:29:30.352Z,100
2023-03-01T05:34:26.994Z,100
2023-03-01T05:40:37.679Z,100
2023-03-01T05:45:34.112Z,100
2023-03-01T05:50:30.646Z,100
2023-03-01T05:55:29.013Z,100
2023-03-01T06:01:37.905Z,100
2023-03-01T06:06:34.915Z,100
2023-03-01T06:11:30.898Z,100
2023-03-01T06:16:27.559Z,100
2023-03-01T06:22:38.140Z,100
2023-03-01T06:27:34.666Z,100
2023-03-01T06:32:31.184Z,100
2023-03-01T06:37:27.827Z,100
2023-03-01T06:43:38.378Z,100
2023-03-01T06:48:34.951Z,100
2023-03-01T06:53:31.416Z,100
2023-03-01T06:58:28.088Z,100
2023-03-01T07:04:38.783Z,100
2023-03-01T07:09:35.192Z,100
2023-03-01T07:14:31.667Z,100
2023-03-01T07:19:28.237Z,100
2023-03-01T07:25:38.981Z,100
2023-03-01T07:30:35.543Z,100
2023-03-01T07:35:31.977Z,100
2023-03-01T07:40:28.584Z,100
2023-03-01T07:46:39.225Z,100
2023-03-01T07:51:35.739Z,100
2023-03-01T07:56:32.644Z,100
2023-03-01T08:01:28.828Z,99.6
2023-03-01T08:07:39.402Z,98.4
2023-03-01T08:12:35.990Z,96
2023-03-01T08:17:32.572Z,93.1
2023-03-01T08:22:29.075Z,91.1
2023-03-01T08:28:39.720Z,88.4
2023-03-01T08:33:36.250Z,85.9
2023-03-01T08:38:32.823Z,84.6
2023-03-01T08:43:29.349Z,84.2
2023-03-01T08:48:25.866Z,80.4
2023-03-01T08:54:36.488Z,78.8
2023-03-01T08:59:33.041Z,77.9
2023-03-01T09:04:29.589Z,76.1
2023-03-01T09:09:26.096Z,75.6
2023-03-01T09:15:36.722Z,75.8
2023-03-01T09:20:33.260Z,74.1
2023-03-01T09:25:29.815Z,71.5
2023-03-01T09:30:26.347Z,71.6
2023-03-01T09:36:37.021Z,69
2023-03-01T09:46:30.516Z,63.4
2023-03-01T09:51:26.571Z,62.9
2023-03-01T09:57:37.336Z,62.5
2023-03-01T10:02:33.796Z,61
2023-03-01T10:07:30.298Z,61
2023-03-01T10:12:26.971Z,60.8
2023-03-01T10:18:37.557Z,58.9
2023-03-01T10:23:34.068Z,58.2
2023-03-01T10:28:30.563Z,56.6
2023-03-01T10:33:27.294Z,55.9
2023-03-01T10:38:31.906Z,56.9
2023-03-01T10:43:28.396Z,56.1
2023-03-01T10:49:39.026Z,54.1
2023-03-01T10:54:35.635Z,55
2023-03-01T10:59:32.056Z,54.8
2023-03-01T11:04:28.762Z,53.1
2023-03-01T11:10:39.272Z,51.8
2023-03-01T11:15:35.799Z,53.4
2023-03-01T11:20:32.379Z,51.6
2023-03-01T11:25:28.956Z,50
2023-03-01T11:31:46.567Z,48.8
2023-03-01T11:36:36.108Z,50.1
2023-03-01T11:41:33.051Z,49.6
2023-03-01T11:46:29.552Z,46.5
2023-03-01T11:52:39.899Z,41.3
2023-03-01T11:57:43.526Z,40.1
2023-03-01T12:02:32.946Z,37
2023-03-01T12:07:29.438Z,37.6
2023-03-01T12:12:26.024Z,35.4
2023-03-01T12:18:36.653Z,34.8
2023-03-01T12:23:33.135Z,31.9
2023-03-01T12:28:29.691Z,31.7
2023-03-01T12:33:26.224Z,30.6
2023-03-01T12:39:36.885Z,30.3
2023-03-01T12:44:33.370Z,29.6
2023-03-01T12:49:29.916Z,30.1
2023-03-01T12:54:26.544Z,29.9
2023-03-01T13:00:37.093Z,29.4
2023-03-01T13:05:33.661Z,29.9
2023-03-01T13:10:30.258Z,31.1
2023-03-01T13:21:37.411Z,27.4
2023-03-01T13:26:33.970Z,26.3
2023-03-01T13:31:30.489Z,27.7
2023-03-01T13:36:27.052Z,27.7
2023-03-01T13:42:37.910Z,24.8
2023-03-01T13:47:34.190Z,25.2
2023-03-01T13:52:30.692Z,23.1
2023-03-01T13:57:27.244Z,23.8
2023-03-01T14:03:37.983Z,22.8
2023-03-01T14:08:34.445Z,23.4
2023-03-01T14:13:31.112Z,22.8
2023-03-01T14:18:27.519Z,23.1
2023-03-01T14:24:38.190Z,24.3
2023-03-01T14:29:34.691Z,22.1
2023-03-01T14:34:31.276Z,22.6
2023-03-01T14:45:38.509Z,23.6
2023-03-01T14:50:35.227Z,23
2023-03-01T14:55:31.485Z,22.6
2023-03-01T15:00:28.306Z,22.6
2023-03-01T15:06:38.801Z,22.4
2023-03-01T15:11:35.322Z,22.1
2023-03-01T15:16:32.276Z,22.3
2023-03-01T15:21:28.481Z,20.8
2023-03-01T15:27:38.947Z,21.1
2023-03-01T15:32:35.489Z,21.6
2023-03-01T15:37:32.025Z,21.9
2023-03-01T15:42:28.645Z,22.2
2023-03-01T15:48:39.304Z,22.3
2023-03-01T15:53:39.495Z,22.4
2023-03-01T15:58:32.334Z,23.7
2023-03-01T16:03:28.864Z,23.7
2023-03-01T16:09:39.592Z,24.5
2023-03-01T16:14:36.054Z,24.8
2023-03-01T16:19:32.614Z,26
2023-03-01T16:24:29.094Z,25.4
2023-03-01T16:29:25.704Z,26.5
2023-03-01T16:35:36.397Z,26.6
2023-03-01T16:40:32.866Z,27.7
2023-03-01T16:45:29.659Z,29.1
2023-03-01T16:51:40.037Z,31.2
2023-03-01T16:56:36.592Z,32
2023-03-01T17:01:33.646Z,33.2
2023-03-01T17:06:29.676Z,34.8
2023-03-01T17:12:40.296Z,38
2023-03-01T17:17:36.921Z,40
2023-03-01T17:22:33.369Z,41
2023-03-01T17:27:29.945Z,41.9
2023-03-01T17:32:26.647Z,43.4
2023-03-01T17:38:37.122Z,45.3
2023-03-01T17:43:33.657Z,44.5
2023-03-01T17:48:30.179Z,45.4
2023-03-01T17:53:26.688Z,47.5
2023-03-01T17:59:37.357Z,46.6
2023-03-01T18:04:33.872Z,46.8
2023-03-01T18:09:30.418Z,49.4
2023-03-01T18:14:27.099Z,49.7
2023-03-01T18:20:37.624Z,48.7
2023-03-01T18:25:34.566Z,48.7
2023-03-01T18:30:30.775Z,49.6
2023-03-01T18:35:27.271Z,51.6
2023-03-01T18:41:37.950Z,52
2023-03-01T18:46:37.002Z,52.1
2023-03-01T18:51:31.467Z,55.5
2023-03-01T18:56:27.530Z,55.4
2023-03-01T19:02:38.317Z,54.5
2023-03-01T19:07:34.737Z,55.7
2023-03-01T19:12:31.213Z,56.1
2023-03-01T19:23:38.459Z,59
2023-03-01T19:28:36.055Z,58.2
2023-03-01T19:33:31.472Z,58.5
2023-03-01T19:38:28.054Z,59.3
2023-03-01T19:44:38.695Z,59.4
2023-03-01T19:49:35.243Z,58.6
2023-03-01T19:54:31.719Z,58.6
2023-03-01T19:59:28.374Z,63.1
2023-03-01T20:05:38.930Z,59.4
2023-03-01T20:10:35.509Z,59.7
2023-03-01T20:15:31.971Z,59.4
2023-03-01T20:20:28.594Z,60.7
2023-03-01T20:26:39.210Z,62.5
2023-03-01T20:31:35.927Z,62
2023-03-01T20:36:32.333Z,62.6
2023-03-01T20:41:28.857Z,63.7
2023-03-01T20:47:39.554Z,64.2
2023-03-01T20:52:45.862Z,62.6
2023-03-01T20:57:32.615Z,62.6
2023-03-01T21:02:29.068Z,62.8
2023-03-01T21:07:25.752Z,64
2023-03-01T21:13:36.218Z,66
2023-03-01T21:18:32.837Z,65.6
2023-03-01T21:23:29.333Z,68.5
2023-03-01T21:28:25.840Z,69.1
2023-03-01T21:34:36.521Z,68.9
2023-03-01T21:39:33.074Z,67.4
2023-03-01T21:44:29.682Z,67.6
2023-03-01T21:49:26.130Z,65.9
2023-03-01T21:55:36.797Z,67.9
2023-03-01T22:00:33.338Z,70.2
2023-03-01T22:05:29.882Z,71.3
2023-03-01T22:11:40.469Z,67.6
2023-03-01T22:16:37.112Z,71.4
2023-03-01T22:31:26.672Z,71.4
2023-03-01T22:37:37.274Z,70.7
2023-03-01T22:42:33.902Z,69.6
2023-03-01T22:47:30.327Z,71.3
2023-03-01T22:52:26.929Z,72.3
2023-03-01T22:58:37.620Z,72.2
2023-03-01T23:02:28.354Z,65.4
2023-03-01T23:08:38.874Z,71.9
2023-03-01T23:13:35.345Z,71.2
2023-03-01T23:18:31.900Z,71.5
2023-03-01T23:23:28.389Z,75.6
2023-03-01T23:29:39.392Z,73.8
2023-03-01T23:34:35.630Z,75.8
2023-03-01T23:39:32.201Z,71.6
2023-03-01T23:44:28.730Z,71.5
2023-03-01T23:50:39.348Z,71.6
2023-03-01T23:55:35.964Z,70
